sensor_id;sensor_type;location;lat;lon;timestamp;P1;durP1;ratioP1;P2;durP2;ratioP2
79697;SDS011;69168;42.708;23.286;2023-12-20T00:01:31;50.28;;;25.85;;
79697;SDS011;69168;42.708;23.286;2023-12-20T00:03:56;52.92;;;26.77;;
79697;SDS011;69168;42.708;23.286;2023-12-20T00:06:22;56.25;;;27.48;;
79697;SDS011;69168;42.708;23.286;2023-12-20T00:08:47;53.60;;;28.17;;
79697;SDS011;69168;42.708;23.286;2023-12-20T00:11:13;58.10;;;27.92;;
79697;SDS011;69168;42.708;23.286;2023-12-20T00:13:38;60.65;;;33.13;;
79697;SDS011;69168;42.708;23.286;2023-12-20T00:16:04;65.18;;;33.85;;
79697;SDS011;69168;42.708;23.286;2023-12-20T00:18:30;66.00;;;33.13;;
79697;SDS011;69168;42.708;23.286;2023-12-20T00:20:55;63.33;;;34.15;;
79697;SDS011;69168;42.708;23.286;2023-12-20T00:23:21;73.20;;;35.63;;
79697;SDS011;69168;42.708;23.286;2023-12-20T00:25:48;74.22;;;38.10;;
79697;SDS011;69168;42.708;23.286;2023-12-20T00:28:14;72.70;;;37.58;;
79697;SDS011;69168;42.708;23.286;2023-12-20T00:30:42;63.10;;;33.20;;
79697;SDS011;69168;42.708;23.286;2023-12-20T00:33:09;71.35;;;34.78;;
79697;SDS011;69168;42.708;23.286;2023-12-20T00:35:34;69.78;;;35.05;;
79697;SDS011;69168;42.708;23.286;2023-12-20T00:38:00;68.10;;;35.28;;
79697;SDS011;69168;42.708;23.286;2023-12-20T00:40:25;65.75;;;34.85;;
79697;SDS011;69168;42.708;23.286;2023-12-20T00:42:51;73.93;;;38.95;;
79697;SDS011;69168;42.708;23.286;2023-12-20T00:45:16;73.70;;;39.10;;
79697;SDS011;69168;42.708;23.286;2023-12-20T00:47:42;80.70;;;36.67;;
79697;SDS011;69168;42.708;23.286;2023-12-20T00:50:08;73.40;;;38.53;;
79697;SDS011;69168;42.708;23.286;2023-12-20T00:52:34;82.70;;;40.10;;
79697;SDS011;69168;42.708;23.286;2023-12-20T00:54:59;66.65;;;35.25;;
79697;SDS011;69168;42.708;23.286;2023-12-20T00:57:25;59.67;;;29.17;;
79697;SDS011;69168;42.708;23.286;2023-12-20T00:59:50;53.30;;;27.58;;
79697;SDS011;69168;42.708;23.286;2023-12-20T01:02:16;53.15;;;27.88;;
79697;SDS011;69168;42.708;23.286;2023-12-20T01:04:42;51.20;;;26.73;;
79697;SDS011;69168;42.708;23.286;2023-12-20T01:07:07;43.28;;;22.60;;
79697;SDS011;69168;42.708;23.286;2023-12-20T01:09:33;50.50;;;24.83;;
79697;SDS011;69168;42.708;23.286;2023-12-20T01:11:58;44.17;;;24.58;;
79697;SDS011;69168;42.708;23.286;2023-12-20T01:14:24;51.40;;;26.23;;
79697;SDS011;69168;42.708;23.286;2023-12-20T01:16:50;49.88;;;25.08;;
79697;SDS011;69168;42.708;23.286;2023-12-20T01:19:15;49.47;;;24.13;;
79697;SDS011;69168;42.708;23.286;2023-12-20T01:21:41;48.22;;;22.95;;
79697;SDS011;69168;42.708;23.286;2023-12-20T01:24:06;52.35;;;27.27;;
79697;SDS011;69168;42.708;23.286;2023-12-20T01:26:32;67.70;;;30.83;;
79697;SDS011;69168;42.708;23.286;2023-12-20T01:28:57;58.80;;;27.50;;
79697;SDS011;69168;42.708;23.286;2023-12-20T01:31:23;55.72;;;27.67;;
79697;SDS011;69168;42.708;23.286;2023-12-20T01:33:48;51.60;;;26.98;;
79697;SDS011;69168;42.708;23.286;2023-12-20T01:36:14;48.67;;;26.08;;
79697;SDS011;69168;42.708;23.286;2023-12-20T01:38:40;55.83;;;26.77;;
79697;SDS011;69168;42.708;23.286;2023-12-20T01:41:05;62.00;;;27.63;;
79697;SDS011;69168;42.708;23.286;2023-12-20T01:43:31;56.20;;;27.52;;
79697;SDS011;69168;42.708;23.286;2023-12-20T01:45:59;59.80;;;30.38;;
79697;SDS011;69168;42.708;23.286;2023-12-20T01:48:25;67.10;;;34.13;;
79697;SDS011;69168;42.708;23.286;2023-12-20T01:50:52;69.45;;;34.63;;
79697;SDS011;69168;42.708;23.286;2023-12-20T01:53:20;68.60;;;33.25;;
79697;SDS011;69168;42.708;23.286;2023-12-20T01:55:48;76.00;;;35.60;;
79697;SDS011;69168;42.708;23.286;2023-12-20T01:58:17;73.35;;;34.22;;
79697;SDS011;69168;42.708;23.286;2023-12-20T02:00:43;82.78;;;38.20;;
79697;SDS011;69168;42.708;23.286;2023-12-20T02:03:09;75.93;;;34.03;;
79697;SDS011;69168;42.708;23.286;2023-12-20T02:05:35;74.95;;;32.03;;
79697;SDS011;69168;42.708;23.286;2023-12-20T02:08:02;62.28;;;29.17;;
79697;SDS011;69168;42.708;23.286;2023-12-20T02:10:27;59.30;;;28.17;;
79697;SDS011;69168;42.708;23.286;2023-12-20T02:12:54;59.92;;;29.55;;
79697;SDS011;69168;42.708;23.286;2023-12-20T02:15:20;76.15;;;34.45;;
79697;SDS011;69168;42.708;23.286;2023-12-20T02:17:46;78.45;;;33.75;;
79697;SDS011;69168;42.708;23.286;2023-12-20T02:20:13;89.85;;;30.05;;
79697;SDS011;69168;42.708;23.286;2023-12-20T02:22:39;65.07;;;29.38;;
79697;SDS011;69168;42.708;23.286;2023-12-20T02:25:05;71.63;;;29.92;;
79697;SDS011;69168;42.708;23.286;2023-12-20T02:27:31;65.20;;;30.75;;
79697;SDS011;69168;42.708;23.286;2023-12-20T02:29:56;72.25;;;31.05;;
79697;SDS011;69168;42.708;23.286;2023-12-20T02:32:22;70.97;;;29.63;;
79697;SDS011;69168;42.708;23.286;2023-12-20T02:34:52;67.07;;;30.20;;
79697;SDS011;69168;42.708;23.286;2023-12-20T02:37:18;73.50;;;32.25;;
79697;SDS011;69168;42.708;23.286;2023-12-20T02:39:44;75.75;;;31.50;;
79697;SDS011;69168;42.708;23.286;2023-12-20T02:42:09;75.25;;;31.77;;
79697;SDS011;69168;42.708;23.286;2023-12-20T02:44:35;70.78;;;31.92;;
79697;SDS011;69168;42.708;23.286;2023-12-20T02:47:01;66.57;;;30.65;;
79697;SDS011;69168;42.708;23.286;2023-12-20T02:49:27;67.05;;;28.50;;
79697;SDS011;69168;42.708;23.286;2023-12-20T02:51:52;72.18;;;31.40;;
79697;SDS011;69168;42.708;23.286;2023-12-20T02:54:18;69.10;;;26.95;;
79697;SDS011;69168;42.708;23.286;2023-12-20T02:56:43;76.43;;;29.75;;
79697;SDS011;69168;42.708;23.286;2023-12-20T02:59:09;61.08;;;25.13;;
79697;SDS011;69168;42.708;23.286;2023-12-20T03:01:34;66.32;;;25.65;;
79697;SDS011;69168;42.708;23.286;2023-12-20T03:04:00;64.30;;;26.33;;
79697;SDS011;69168;42.708;23.286;2023-12-20T03:06:26;54.50;;;25.20;;
79697;SDS011;69168;42.708;23.286;2023-12-20T03:08:52;56.75;;;24.33;;
79697;SDS011;69168;42.708;23.286;2023-12-20T03:11:17;63.72;;;25.13;;
79697;SDS011;69168;42.708;23.286;2023-12-20T03:13:43;59.83;;;24.23;;
79697;SDS011;69168;42.708;23.286;2023-12-20T03:16:09;57.95;;;26.48;;
79697;SDS011;69168;42.708;23.286;2023-12-20T03:18:35;54.58;;;24.85;;
79697;SDS011;69168;42.708;23.286;2023-12-20T03:21:00;51.72;;;24.98;;
79697;SDS011;69168;42.708;23.286;2023-12-20T03:23:26;50.45;;;23.13;;
79697;SDS011;69168;42.708;23.286;2023-12-20T03:25:52;59.08;;;23.30;;
79697;SDS011;69168;42.708;23.286;2023-12-20T03:28:17;44.92;;;22.20;;
79697;SDS011;69168;42.708;23.286;2023-12-20T03:30:44;47.05;;;21.38;;
79697;SDS011;69168;42.708;23.286;2023-12-20T03:33:10;44.70;;;21.58;;
79697;SDS011;69168;42.708;23.286;2023-12-20T03:35:36;46.40;;;23.02;;
79697;SDS011;69168;42.708;23.286;2023-12-20T03:38:02;50.70;;;23.15;;
79697;SDS011;69168;42.708;23.286;2023-12-20T03:40:27;47.72;;;22.45;;
79697;SDS011;69168;42.708;23.286;2023-12-20T03:42:53;53.75;;;24.85;;
79697;SDS011;69168;42.708;23.286;2023-12-20T03:45:18;51.78;;;23.35;;
79697;SDS011;69168;42.708;23.286;2023-12-20T03:47:44;48.05;;;24.17;;
79697;SDS011;69168;42.708;23.286;2023-12-20T03:50:09;47.45;;;23.42;;
79697;SDS011;69168;42.708;23.286;2023-12-20T03:52:35;51.72;;;25.10;;
79697;SDS011;69168;42.708;23.286;2023-12-20T03:55:00;52.22;;;23.42;;
79697;SDS011;69168;42.708;23.286;2023-12-20T03:57:26;50.58;;;22.15;;
79697;SDS011;69168;42.708;23.286;2023-12-20T03:59:51;46.92;;;21.48;;
79697;SDS011;69168;42.708;23.286;2023-12-20T04:02:17;45.95;;;22.05;;
79697;SDS011;69168;42.708;23.286;2023-12-20T04:04:43;48.00;;;20.77;;
79697;SDS011;69168;42.708;23.286;2023-12-20T04:07:08;54.10;;;22.45;;
79697;SDS011;69168;42.708;23.286;2023-12-20T04:09:34;45.90;;;21.13;;
79697;SDS011;69168;42.708;23.286;2023-12-20T04:12:00;49.63;;;21.17;;
79697;SDS011;69168;42.708;23.286;2023-12-20T04:14:25;48.97;;;23.77;;
79697;SDS011;69168;42.708;23.286;2023-12-20T04:16:51;49.92;;;21.35;;
79697;SDS011;69168;42.708;23.286;2023-12-20T04:19:16;51.53;;;22.42;;
79697;SDS011;69168;42.708;23.286;2023-12-20T04:21:42;49.25;;;22.85;;
79697;SDS011;69168;42.708;23.286;2023-12-20T04:24:07;50.35;;;23.00;;
79697;SDS011;69168;42.708;23.286;2023-12-20T04:26:33;49.38;;;22.75;;
79697;SDS011;69168;42.708;23.286;2023-12-20T04:28:58;48.17;;;23.15;;
79697;SDS011;69168;42.708;23.286;2023-12-20T04:31:24;49.53;;;21.35;;
79697;SDS011;69168;42.708;23.286;2023-12-20T04:33:49;55.33;;;24.00;;
79697;SDS011;69168;42.708;23.286;2023-12-20T04:36:15;65.13;;;27.10;;
79697;SDS011;69168;42.708;23.286;2023-12-20T04:38:40;62.28;;;29.25;;
79697;SDS011;69168;42.708;23.286;2023-12-20T04:41:06;63.10;;;27.13;;
79697;SDS011;69168;42.708;23.286;2023-12-20T04:43:32;68.22;;;28.52;;
79697;SDS011;69168;42.708;23.286;2023-12-20T04:45:57;74.53;;;30.25;;
79697;SDS011;69168;42.708;23.286;2023-12-20T04:48:23;72.05;;;29.33;;
79697;SDS011;69168;42.708;23.286;2023-12-20T04:50:48;76.95;;;29.40;;
79697;SDS011;69168;42.708;23.286;2023-12-20T04:53:14;71.10;;;28.35;;
79697;SDS011;69168;42.708;23.286;2023-12-20T04:55:39;69.47;;;28.83;;
79697;SDS011;69168;42.708;23.286;2023-12-20T04:58:23;65.85;;;28.70;;
79697;SDS011;69168;42.708;23.286;2023-12-20T05:00:49;77.07;;;31.90;;
79697;SDS011;69168;42.708;23.286;2023-12-20T05:03:14;76.90;;;30.98;;
79697;SDS011;69168;42.708;23.286;2023-12-20T05:05:40;89.13;;;31.40;;
79697;SDS011;69168;42.708;23.286;2023-12-20T05:08:05;86.50;;;30.70;;
79697;SDS011;69168;42.708;23.286;2023-12-20T05:10:31;80.68;;;31.58;;
79697;SDS011;69168;42.708;23.286;2023-12-20T05:12:56;68.30;;;29.63;;
79697;SDS011;69168;42.708;23.286;2023-12-20T05:15:22;66.40;;;29.10;;
79697;SDS011;69168;42.708;23.286;2023-12-20T05:17:47;78.18;;;32.05;;
79697;SDS011;69168;42.708;23.286;2023-12-20T05:20:13;76.72;;;31.63;;
79697;SDS011;69168;42.708;23.286;2023-12-20T05:22:39;71.68;;;30.13;;
79697;SDS011;69168;42.708;23.286;2023-12-20T05:27:32;75.30;;;29.98;;
79697;SDS011;69168;42.708;23.286;2023-12-20T05:29:57;73.60;;;31.73;;
79697;SDS011;69168;42.708;23.286;2023-12-20T05:32:23;78.45;;;30.98;;
79697;SDS011;69168;42.708;23.286;2023-12-20T05:34:49;82.03;;;30.95;;
79697;SDS011;69168;42.708;23.286;2023-12-20T05:37:14;84.20;;;34.22;;
79697;SDS011;69168;42.708;23.286;2023-12-20T05:39:40;71.55;;;31.05;;
79697;SDS011;69168;42.708;23.286;2023-12-20T05:42:05;79.05;;;32.83;;
79697;SDS011;69168;42.708;23.286;2023-12-20T05:44:31;95.20;;;31.83;;
79697;SDS011;69168;42.708;23.286;2023-12-20T05:46:57;81.80;;;32.83;;
79697;SDS011;69168;42.708;23.286;2023-12-20T05:49:22;79.78;;;34.58;;
79697;SDS011;69168;42.708;23.286;2023-12-20T05:51:48;82.53;;;33.75;;
79697;SDS011;69168;42.708;23.286;2023-12-20T05:54:14;80.03;;;33.13;;
79697;SDS011;69168;42.708;23.286;2023-12-20T05:56:39;80.57;;;36.40;;
79697;SDS011;69168;42.708;23.286;2023-12-20T05:59:05;90.28;;;35.60;;
79697;SDS011;69168;42.708;23.286;2023-12-20T06:01:30;83.65;;;34.35;;
79697;SDS011;69168;42.708;23.286;2023-12-20T06:03:56;84.18;;;33.92;;
79697;SDS011;69168;42.708;23.286;2023-12-20T06:06:23;91.50;;;36.13;;
79697;SDS011;69168;42.708;23.286;2023-12-20T06:08:48;101.05;;;35.97;;
79697;SDS011;69168;42.708;23.286;2023-12-20T06:11:14;79.60;;;33.58;;
79697;SDS011;69168;42.708;23.286;2023-12-20T06:13:40;83.88;;;34.00;;
79697;SDS011;69168;42.708;23.286;2023-12-20T06:16:05;89.45;;;32.78;;
79697;SDS011;69168;42.708;23.286;2023-12-20T06:18:32;86.47;;;34.70;;
79697;SDS011;69168;42.708;23.286;2023-12-20T06:20:57;72.82;;;29.63;;
79697;SDS011;69168;42.708;23.286;2023-12-20T06:23:23;88.30;;;31.05;;
79697;SDS011;69168;42.708;23.286;2023-12-20T06:25:48;73.72;;;29.10;;
79697;SDS011;69168;42.708;23.286;2023-12-20T06:28:14;75.72;;;30.05;;
79697;SDS011;69168;42.708;23.286;2023-12-20T06:30:40;82.43;;;29.75;;
79697;SDS011;69168;42.708;23.286;2023-12-20T06:33:05;73.03;;;29.02;;
79697;SDS011;69168;42.708;23.286;2023-12-20T06:35:32;72.55;;;29.73;;
79697;SDS011;69168;42.708;23.286;2023-12-20T06:37:57;77.25;;;27.55;;
79697;SDS011;69168;42.708;23.286;2023-12-20T06:40:23;71.80;;;27.65;;
79697;SDS011;69168;42.708;23.286;2023-12-20T06:42:49;93.03;;;30.73;;
79697;SDS011;69168;42.708;23.286;2023-12-20T06:45:14;87.10;;;28.92;;
79697;SDS011;69168;42.708;23.286;2023-12-20T06:47:40;83.07;;;25.42;;
79697;SDS011;69168;42.708;23.286;2023-12-20T06:50:05;69.00;;;27.45;;
79697;SDS011;69168;42.708;23.286;2023-12-20T06:52:33;84.93;;;28.85;;
79697;SDS011;69168;42.708;23.286;2023-12-20T06:54:59;74.57;;;28.08;;
79697;SDS011;69168;42.708;23.286;2023-12-20T06:57:25;80.22;;;27.38;;
79697;SDS011;69168;42.708;23.286;2023-12-20T06:59:51;77.38;;;27.55;;
79697;SDS011;69168;42.708;23.286;2023-12-20T07:02:17;78.97;;;26.90;;
79697;SDS011;69168;42.708;23.286;2023-12-20T07:04:42;63.97;;;28.13;;
79697;SDS011;69168;42.708;23.286;2023-12-20T07:07:08;79.45;;;28.25;;
79697;SDS011;69168;42.708;23.286;2023-12-20T07:09:34;77.60;;;27.85;;
79697;SDS011;69168;42.708;23.286;2023-12-20T07:11:59;64.03;;;24.55;;
79697;SDS011;69168;42.708;23.286;2023-12-20T07:14:25;66.95;;;27.10;;
79697;SDS011;69168;42.708;23.286;2023-12-20T07:16:50;59.25;;;26.48;;
79697;SDS011;69168;42.708;23.286;2023-12-20T07:19:16;72.30;;;27.35;;
79697;SDS011;69168;42.708;23.286;2023-12-20T07:21:42;67.07;;;26.17;;
79697;SDS011;69168;42.708;23.286;2023-12-20T07:24:07;64.43;;;26.65;;
79697;SDS011;69168;42.708;23.286;2023-12-20T07:26:33;68.10;;;27.17;;
79697;SDS011;69168;42.708;23.286;2023-12-20T07:28:59;70.20;;;27.83;;
79697;SDS011;69168;42.708;23.286;2023-12-20T07:31:24;78.32;;;29.63;;
79697;SDS011;69168;42.708;23.286;2023-12-20T07:33:50;78.38;;;29.05;;
79697;SDS011;69168;42.708;23.286;2023-12-20T07:36:16;63.92;;;25.95;;
79697;SDS011;69168;42.708;23.286;2023-12-20T07:38:41;54.20;;;23.25;;
79697;SDS011;69168;42.708;23.286;2023-12-20T07:41:09;68.82;;;26.85;;
79697;SDS011;69168;42.708;23.286;2023-12-20T07:43:36;72.18;;;26.88;;
79697;SDS011;69168;42.708;23.286;2023-12-20T07:46:08;70.68;;;28.02;;
79697;SDS011;69168;42.708;23.286;2023-12-20T07:48:36;63.13;;;26.02;;
79697;SDS011;69168;42.708;23.286;2023-12-20T07:51:03;75.97;;;28.02;;
79697;SDS011;69168;42.708;23.286;2023-12-20T07:53:29;80.88;;;30.05;;
79697;SDS011;69168;42.708;23.286;2023-12-20T07:55:55;78.60;;;29.80;;
79697;SDS011;69168;42.708;23.286;2023-12-20T07:58:21;93.47;;;35.03;;
79697;SDS011;69168;42.708;23.286;2023-12-20T08:00:47;89.43;;;33.10;;
79697;SDS011;69168;42.708;23.286;2023-12-20T08:03:12;101.55;;;35.15;;
79697;SDS011;69168;42.708;23.286;2023-12-20T08:05:38;92.63;;;37.15;;
79697;SDS011;69168;42.708;23.286;2023-12-20T08:08:05;103.40;;;36.10;;
79697;SDS011;69168;42.708;23.286;2023-12-20T08:10:31;98.50;;;37.63;;
79697;SDS011;69168;42.708;23.286;2023-12-20T08:12:57;104.50;;;36.90;;
79697;SDS011;69168;42.708;23.286;2023-12-20T08:15:22;100.90;;;37.80;;
79697;SDS011;69168;42.708;23.286;2023-12-20T08:17:48;96.47;;;36.70;;
79697;SDS011;69168;42.708;23.286;2023-12-20T08:20:16;102.15;;;38.08;;
79697;SDS011;69168;42.708;23.286;2023-12-20T08:22:42;98.72;;;38.13;;
79697;SDS011;69168;42.708;23.286;2023-12-20T08:25:07;95.30;;;37.95;;
79697;SDS011;69168;42.708;23.286;2023-12-20T08:27:39;93.40;;;36.65;;
79697;SDS011;69168;42.708;23.286;2023-12-20T08:30:06;97.30;;;39.00;;
79697;SDS011;69168;42.708;23.286;2023-12-20T08:32:34;97.18;;;36.55;;
79697;SDS011;69168;42.708;23.286;2023-12-20T08:34:59;101.53;;;36.58;;
79697;SDS011;69168;42.708;23.286;2023-12-20T08:37:25;100.50;;;36.80;;
79697;SDS011;69168;42.708;23.286;2023-12-20T08:39:50;97.93;;;35.70;;
79697;SDS011;69168;42.708;23.286;2023-12-20T08:42:16;104.13;;;39.33;;
79697;SDS011;69168;42.708;23.286;2023-12-20T08:44:41;99.65;;;38.97;;
79697;SDS011;69168;42.708;23.286;2023-12-20T08:47:07;107.20;;;39.90;;
79697;SDS011;69168;42.708;23.286;2023-12-20T08:49:32;112.53;;;40.63;;
79697;SDS011;69168;42.708;23.286;2023-12-20T08:51:58;115.25;;;44.03;;
79697;SDS011;69168;42.708;23.286;2023-12-20T08:54:24;101.75;;;40.13;;
79697;SDS011;69168;42.708;23.286;2023-12-20T08:56:49;109.65;;;39.25;;
79697;SDS011;69168;42.708;23.286;2023-12-20T08:59:18;115.15;;;43.08;;
79697;SDS011;69168;42.708;23.286;2023-12-20T09:01:44;110.55;;;41.38;;
79697;SDS011;69168;42.708;23.286;2023-12-20T09:04:09;104.40;;;41.33;;
79697;SDS011;69168;42.708;23.286;2023-12-20T09:06:35;117.85;;;43.25;;
79697;SDS011;69168;42.708;23.286;2023-12-20T09:09:00;115.90;;;45.83;;
79697;SDS011;69168;42.708;23.286;2023-12-20T09:11:26;125.00;;;49.33;;
79697;SDS011;69168;42.708;23.286;2023-12-20T09:13:51;122.32;;;45.42;;
79697;SDS011;69168;42.708;23.286;2023-12-20T09:16:17;115.30;;;46.08;;
79697;SDS011;69168;42.708;23.286;2023-12-20T09:18:42;125.97;;;48.63;;
79697;SDS011;69168;42.708;23.286;2023-12-20T09:21:09;123.05;;;46.40;;
79697;SDS011;69168;42.708;23.286;2023-12-20T09:23:34;110.18;;;43.58;;
79697;SDS011;69168;42.708;23.286;2023-12-20T09:26:01;117.40;;;47.13;;
79697;SDS011;69168;42.708;23.286;2023-12-20T09:28:27;127.53;;;46.28;;
79697;SDS011;69168;42.708;23.286;2023-12-20T09:30:53;117.85;;;46.80;;
79697;SDS011;69168;42.708;23.286;2023-12-20T09:33:18;126.90;;;48.58;;
79697;SDS011;69168;42.708;23.286;2023-12-20T09:35:44;127.88;;;50.53;;
79697;SDS011;69168;42.708;23.286;2023-12-20T09:38:10;133.18;;;51.92;;
79697;SDS011;69168;42.708;23.286;2023-12-20T09:40:36;131.02;;;51.95;;
79697;SDS011;69168;42.708;23.286;2023-12-20T09:43:04;148.38;;;56.03;;
79697;SDS011;69168;42.708;23.286;2023-12-20T09:45:30;147.05;;;54.97;;
79697;SDS011;69168;42.708;23.286;2023-12-20T09:47:57;136.98;;;53.03;;
79697;SDS011;69168;42.708;23.286;2023-12-20T09:50:23;139.82;;;52.65;;
79697;SDS011;69168;42.708;23.286;2023-12-20T09:52:49;133.45;;;51.30;;
79697;SDS011;69168;42.708;23.286;2023-12-20T09:55:20;143.18;;;51.72;;
79697;SDS011;69168;42.708;23.286;2023-12-20T09:57:48;137.80;;;54.28;;
79697;SDS011;69168;42.708;23.286;2023-12-20T10:00:17;141.32;;;54.28;;
79697;SDS011;69168;42.708;23.286;2023-12-20T10:02:50;146.60;;;54.13;;
79697;SDS011;69168;42.708;23.286;2023-12-20T10:05:23;145.00;;;53.17;;
79697;SDS011;69168;42.708;23.286;2023-12-20T10:07:54;143.90;;;53.83;;
79697;SDS011;69168;42.708;23.286;2023-12-20T10:10:20;150.00;;;56.38;;
79697;SDS011;69168;42.708;23.286;2023-12-20T10:13:00;141.75;;;56.97;;
79697;SDS011;69168;42.708;23.286;2023-12-20T10:15:27;148.35;;;57.67;;
79697;SDS011;69168;42.708;23.286;2023-12-20T10:17:53;145.15;;;56.95;;
79697;SDS011;69168;42.708;23.286;2023-12-20T10:20:19;143.13;;;54.40;;
79697;SDS011;69168;42.708;23.286;2023-12-20T10:22:49;142.02;;;55.08;;
79697;SDS011;69168;42.708;23.286;2023-12-20T10:25:15;141.30;;;54.17;;
79697;SDS011;69168;42.708;23.286;2023-12-20T10:27:40;144.30;;;59.33;;
79697;SDS011;69168;42.708;23.286;2023-12-20T10:30:06;131.02;;;55.35;;
79697;SDS011;69168;42.708;23.286;2023-12-20T10:32:32;138.77;;;56.28;;
79697;SDS011;69168;42.708;23.286;2023-12-20T10:35:00;148.35;;;57.78;;
79697;SDS011;69168;42.708;23.286;2023-12-20T10:37:27;142.25;;;56.92;;
79697;SDS011;69168;42.708;23.286;2023-12-20T10:39:53;142.18;;;58.33;;
79697;SDS011;69168;42.708;23.286;2023-12-20T10:42:24;142.38;;;57.85;;
79697;SDS011;69168;42.708;23.286;2023-12-20T10:44:51;143.70;;;57.85;;
79697;SDS011;69168;42.708;23.286;2023-12-20T10:47:19;137.30;;;59.20;;
79697;SDS011;69168;42.708;23.286;2023-12-20T10:49:45;142.40;;;57.25;;
79697;SDS011;69168;42.708;23.286;2023-12-20T10:52:11;148.05;;;61.10;;
79697;SDS011;69168;42.708;23.286;2023-12-20T10:54:38;143.27;;;59.33;;
79697;SDS011;69168;42.708;23.286;2023-12-20T10:57:07;149.68;;;58.78;;
79697;SDS011;69168;42.708;23.286;2023-12-20T10:59:33;146.00;;;61.25;;
79697;SDS011;69168;42.708;23.286;2023-12-20T11:02:02;142.25;;;61.45;;
79697;SDS011;69168;42.708;23.286;2023-12-20T11:07:31;136.07;;;56.45;;
79697;SDS011;69168;42.708;23.286;2023-12-20T11:10:08;140.70;;;57.50;;
79697;SDS011;69168;42.708;23.286;2023-12-20T11:12:38;139.90;;;60.72;;
79697;SDS011;69168;42.708;23.286;2023-12-20T11:15:14;142.07;;;54.95;;
79697;SDS011;69168;42.708;23.286;2023-12-20T11:17:40;144.77;;;59.17;;
79697;SDS011;69168;42.708;23.286;2023-12-20T11:20:09;138.65;;;58.17;;
79697;SDS011;69168;42.708;23.286;2023-12-20T11:22:36;143.98;;;60.65;;
79697;SDS011;69168;42.708;23.286;2023-12-20T11:27:36;147.10;;;60.38;;
79697;SDS011;69168;42.708;23.286;2023-12-20T11:30:05;146.82;;;58.15;;
79697;SDS011;69168;42.708;23.286;2023-12-20T11:32:33;141.50;;;63.50;;
79697;SDS011;69168;42.708;23.286;2023-12-20T11:37:38;155.57;;;64.65;;
79697;SDS011;69168;42.708;23.286;2023-12-20T11:40:08;157.38;;;67.15;;
79697;SDS011;69168;42.708;23.286;2023-12-20T11:42:42;177.50;;;69.50;;
79697;SDS011;69168;42.708;23.286;2023-12-20T11:45:14;160.02;;;69.60;;
79697;SDS011;69168;42.708;23.286;2023-12-20T11:47:48;161.90;;;69.30;;
79697;SDS011;69168;42.708;23.286;2023-12-20T11:50:21;169.15;;;70.88;;
79697;SDS011;69168;42.708;23.286;2023-12-20T11:52:48;165.07;;;71.03;;
79697;SDS011;69168;42.708;23.286;2023-12-20T11:55:14;159.93;;;68.97;;
79697;SDS011;69168;42.708;23.286;2023-12-20T11:57:41;164.85;;;72.00;;
79697;SDS011;69168;42.708;23.286;2023-12-20T12:02:33;167.85;;;68.38;;
79697;SDS011;69168;42.708;23.286;2023-12-20T12:04:59;165.30;;;67.82;;
79697;SDS011;69168;42.708;23.286;2023-12-20T12:07:25;161.18;;;67.72;;
79697;SDS011;69168;42.708;23.286;2023-12-20T12:09:51;154.27;;;66.38;;
79697;SDS011;69168;42.708;23.286;2023-12-20T12:12:17;152.38;;;68.28;;
79697;SDS011;69168;42.708;23.286;2023-12-20T12:14:47;138.90;;;62.38;;
79697;SDS011;69168;42.708;23.286;2023-12-20T12:17:14;156.02;;;63.58;;
79697;SDS011;69168;42.708;23.286;2023-12-20T12:19:40;151.77;;;65.93;;
79697;SDS011;69168;42.708;23.286;2023-12-20T12:22:10;148.73;;;64.75;;
79697;SDS011;69168;42.708;23.286;2023-12-20T12:24:42;161.02;;;66.00;;
79697;SDS011;69168;42.708;23.286;2023-12-20T12:27:09;139.32;;;61.53;;
79697;SDS011;69168;42.708;23.286;2023-12-20T12:29:35;140.75;;;61.70;;
79697;SDS011;69168;42.708;23.286;2023-12-20T12:32:05;141.65;;;62.60;;
79697;SDS011;69168;42.708;23.286;2023-12-20T12:34:32;130.57;;;57.80;;
79697;SDS011;69168;42.708;23.286;2023-12-20T12:39:24;119.40;;;53.08;;
79697;SDS011;69168;42.708;23.286;2023-12-20T12:41:50;121.07;;;54.58;;
79697;SDS011;69168;42.708;23.286;2023-12-20T12:44:16;130.98;;;55.42;;
79697;SDS011;69168;42.708;23.286;2023-12-20T12:46:43;128.77;;;55.30;;
79697;SDS011;69168;42.708;23.286;2023-12-20T12:49:09;124.93;;;52.60;;
79697;SDS011;69168;42.708;23.286;2023-12-20T12:51:35;126.72;;;52.08;;
79697;SDS011;69168;42.708;23.286;2023-12-20T12:54:00;130.50;;;54.33;;
79697;SDS011;69168;42.708;23.286;2023-12-20T12:56:26;130.18;;;54.72;;
79697;SDS011;69168;42.708;23.286;2023-12-20T12:58:51;127.00;;;52.35;;
79697;SDS011;69168;42.708;23.286;2023-12-20T13:01:17;131.00;;;53.88;;
79697;SDS011;69168;42.708;23.286;2023-12-20T13:03:43;126.70;;;53.15;;
79697;SDS011;69168;42.708;23.286;2023-12-20T13:06:08;123.78;;;50.28;;
79697;SDS011;69168;42.708;23.286;2023-12-20T13:08:34;119.72;;;49.88;;
79697;SDS011;69168;42.708;23.286;2023-12-20T13:10:59;124.57;;;51.33;;
79697;SDS011;69168;42.708;23.286;2023-12-20T13:13:26;123.13;;;49.05;;
79697;SDS011;69168;42.708;23.286;2023-12-20T13:15:52;116.30;;;46.83;;
79697;SDS011;69168;42.708;23.286;2023-12-20T13:18:20;118.53;;;47.72;;
79697;SDS011;69168;42.708;23.286;2023-12-20T13:20:46;118.78;;;48.33;;
79697;SDS011;69168;42.708;23.286;2023-12-20T13:23:12;112.70;;;47.03;;
79697;SDS011;69168;42.708;23.286;2023-12-20T13:25:39;112.90;;;46.88;;
79697;SDS011;69168;42.708;23.286;2023-12-20T13:28:05;118.85;;;47.78;;
79697;SDS011;69168;42.708;23.286;2023-12-20T13:30:30;116.95;;;48.90;;
79697;SDS011;69168;42.708;23.286;2023-12-20T13:32:56;114.03;;;47.35;;
79697;SDS011;69168;42.708;23.286;2023-12-20T13:35:22;124.60;;;47.75;;
79697;SDS011;69168;42.708;23.286;2023-12-20T13:37:47;115.35;;;46.85;;
79697;SDS011;69168;42.708;23.286;2023-12-20T13:40:13;112.93;;;45.95;;
79697;SDS011;69168;42.708;23.286;2023-12-20T13:42:39;128.45;;;48.58;;
79697;SDS011;69168;42.708;23.286;2023-12-20T13:45:05;123.80;;;47.67;;
79697;SDS011;69168;42.708;23.286;2023-12-20T13:47:31;117.13;;;47.05;;
79697;SDS011;69168;42.708;23.286;2023-12-20T13:49:57;120.18;;;47.30;;
79697;SDS011;69168;42.708;23.286;2023-12-20T13:52:23;116.97;;;46.78;;
79697;SDS011;69168;42.708;23.286;2023-12-20T13:54:48;116.07;;;44.45;;
79697;SDS011;69168;42.708;23.286;2023-12-20T13:57:14;109.20;;;45.22;;
79697;SDS011;69168;42.708;23.286;2023-12-20T13:59:39;116.45;;;45.90;;
79697;SDS011;69168;42.708;23.286;2023-12-20T14:02:05;121.95;;;48.08;;
79697;SDS011;69168;42.708;23.286;2023-12-20T14:04:31;129.45;;;47.83;;
79697;SDS011;69168;42.708;23.286;2023-12-20T14:06:57;120.53;;;48.78;;
79697;SDS011;69168;42.708;23.286;2023-12-20T14:09:22;117.25;;;49.08;;
79697;SDS011;69168;42.708;23.286;2023-12-20T14:11:48;120.97;;;49.58;;
79697;SDS011;69168;42.708;23.286;2023-12-20T14:14:14;119.07;;;47.92;;